Time,TemperatureF,DewpointF,PressureIn,WindDirection,WindDirectionDegrees,WindSpeedMPH,WindSpeedGustMPH,Humidity,HourlyPrecipIn,Conditions,Clouds,dailyrainin,SoftwareType,DateUTC
2013-03-20 03:00:00,14.0,-24.0,-100.00,West,262,20.0,31.0,16,-99.99,,,-99.99,,2013-03-20 09:00:00,
2013-03-20 03:43:00,14.0,-24.0,-100.00,West,262,20.0,31.0,16,-99.99,,,-99.99,,2013-03-20 09:43:00,
2013-03-20 03:53:00,14.0,-24.0,-100.00,West,262,20.0,31.0,16,-99.99,,,-99.99,,2013-03-20 09:53:00,
2013-03-20 04:00:00,14.0,-19.0,-100.00,WSW,257,17.0,29.0,20,-99.99,,,-99.99,,2013-03-20 10:00:00,
2013-03-20 04:43:00,14.0,-19.0,-100.00,WSW,257,17.0,29.0,20,-99.99,,,-99.99,,2013-03-20 10:43:00,
2013-03-20 04:53:00,14.0,-19.0,-100.00,WSW,257,17.0,29.0,20,-99.99,,,-99.99,,2013-03-20 10:53:00,
2013-03-20 07:00:00,15.0,-14.0,-100.00,WSW,254,20.0,29.0,25,-99.99,,,-99.99,,2013-03-20 13:00:00,
2013-03-20 07:43:00,15.0,-14.0,-100.00,WSW,254,20.0,29.0,25,-99.99,,,-99.99,,2013-03-20 13:43:00,
2013-03-20 07:53:00,15.0,-14.0,-100.00,WSW,254,20.0,29.0,25,-99.99,,,-99.99,,2013-03-20 13:53:00,
2013-03-20 08:00:00,16.0,-10.0,-100.00,WSW,251,22.0,33.0,29,-99.99,,,-99.99,,2013-03-20 14:00:00,
2013-03-20 08:43:00,16.0,-10.0,-100.00,WSW,251,22.0,33.0,29,-99.99,,,-99.99,,2013-03-20 14:43:00,
2013-03-20 08:53:00,16.0,-10.0,-100.00,WSW,251,22.0,33.0,29,-99.99,,,-99.99,,2013-03-20 14:53:00,
2013-03-20 09:00:00,18.0,-7.0,-100.00,WSW,238,22.0,34.0,32,-99.99,,,-99.99,,2013-03-20 15:00:00,
2013-03-20 09:43:00,18.0,-7.0,-100.00,WSW,238,22.0,34.0,32,-99.99,,,-99.99,,2013-03-20 15:43:00,
2013-03-20 09:53:00,18.0,-7.0,-100.00,WSW,238,22.0,34.0,32,-99.99,,,-99.99,,2013-03-20 15:53:00,
2013-03-20 14:00:00,25.0,10.0,-100.00,West,266,25.0,44.0,50,-99.99,,,-99.99,,2013-03-20 20:00:00,
2013-03-20 14:43:00,25.0,10.0,-100.00,West,266,25.0,44.0,50,-99.99,,,-99.99,,2013-03-20 20:43:00,
2013-03-20 14:53:00,25.0,10.0,-100.00,West,266,25.0,44.0,50,-99.99,,,-99.99,,2013-03-20 20:53:00,
2013-03-20 16:00:00,22.0,15.0,-100.00,West,267,16.0,30.0,73,-99.99,,,-99.99,,2013-03-20 22:00:00,
2013-03-20 16:43:00,22.0,15.0,-100.00,West,267,16.0,30.0,73,-99.99,,,-99.99,,2013-03-20 22:43:00,
2013-03-20 16:53:00,22.0,15.0,-100.00,West,267,16.0,30.0,73,-99.99,,,-99.99,,2013-03-20 22:53:00,
2013-03-20 19:00:00,20.0,18.0,-100.00,WSW,244,15.0,29.0,91,-99.99,,,-99.99,,2013-03-21 01:00:00,
2013-03-20 19:42:00,20.0,18.0,-100.00,WSW,244,15.0,29.0,91,-99.99,,,-99.99,,2013-03-21 01:42:00,
2013-03-20 19:53:00,20.0,18.0,-100.00,WSW,244,15.0,29.0,91,-99.99,,,-99.99,,2013-03-21 01:53:00,
2013-03-20 20:00:00,20.0,17.0,-100.00,WSW,246,13.0,26.0,91,-99.99,,,-99.99,,2013-03-21 02:00:00,
2013-03-20 21:00:00,19.0,17.0,-100.00,WSW,251,17.0,29.0,91,-99.99,,,-99.99,,2013-03-21 03:00:00,
2013-03-20 21:43:00,19.0,17.0,-100.00,WSW,251,17.0,29.0,91,-99.99,,,-99.99,,2013-03-21 03:43:00,
2013-03-20 21:53:00,19.0,17.0,-100.00,WSW,251,17.0,29.0,91,-99.99,,,-99.99,,2013-03-21 03:53:00,